Station: Hindmarsh Island  

  Atmospheric Gas Attenuation - ITU Rec 676-11   ----------------- dB/100km -----------------
Date Time Temp RH % AH g/m3 Dew Point Wind Direction Speed kph Gust kph Barometer mB Rainfall Since 9am 24GHz 47GHz 76GHz 122GHz 134GHz 241GHz
07/05 09:10 14.3 47 5.77 3.2 35 39 1029.8 0 13.6 22.0 29.5 76.7 63.5 216.0
07/05 09:00 14.1 53 6.43 4.7 32 44 1029.9 0 15.0 23.0 32.0 83.3 71.7 244.6
07/05 08:50 13.4 52 6.05 3.8 33 35 1029.7 2.2 14.2 22.6 30.8 80.3 67.6 230.3
07/05 08:40 13.6 51 6 3.7 32 35 1029.6 2.2 14.1 22.5 30.6 79.6 66.8 227.6
07/05 08:30 13.7 52 6.16 4 35 41 1029.4 2.2 14.4 22.7 31.1 81.0 68.7 234.1
07/05 08:20 13.6 50 5.88 3.4 39 43 1029.3 2.2 13.8 22.3 30.1 78.4 65.4 222.4
07/05 08:10 13.5 54 6.32 4.4 35 39 1029.2 2.2 14.7 23.0 31.8 82.8 70.8 241.5
07/05 08:00 13.4 56 6.51 4.8 33 41 1029.1 2.2 15.2 23.3 32.5 84.8 73.2 250.0
07/05 07:50 13.2 58 6.66 5.1 33 39 1028.9 2.2 15.5 23.6 33.2 86.5 75.3 257.2
07/05 07:40 13.1 55 6.28 4.3 39 43 1028.7 2.2 14.7 23.0 31.8 82.8 70.6 240.9
07/05 07:30 13.3 56 6.47 4.7 35 43 1028.6 2.2 15.1 23.3 32.4 84.4 72.8 248.5
07/05 07:20 13 56 6.35 4.4 32 35 1028.6 2.2 14.8 23.1 32.1 83.5 71.6 244.2
07/05 07:10 13 60 6.8 5.4 32 35 1028.4 2.2 15.8 23.8 33.8 88.1 77.2 263.9
07/05 07:00 13.2 63 7.23 6.3 37 46 1028.2 2.2 16.7 24.4 35.3 92.3 82.4 282.3
07/05 06:50 13 61 6.92 5.7 41 43 1028 2.2 16.0 24.0 34.2 89.3 78.7 269.1
07/05 06:40 13.1 61 6.96 5.8 37 41 1027.9 2.2 16.1 24.0 34.3 89.6 79.1 270.5
07/05 06:30 13.2 62 7.12 6.1 37 48 1027.6 2.2 16.5 24.2 34.9 91.1 81.0 277.2
07/05 06:20 13.3 62 7.16 6.2 35 39 1027.7 2.2 16.5 24.3 35.0 91.4 81.4 278.7
07/05 06:10 13.3 62 7.16 6.2 37 41 1027.5 2.2 16.5 24.3 35.0 91.4 81.4 278.6
07/05 06:00 13.3 62 7.16 6.2 35 46 1027.4 2.2 16.5 24.3 35.0 91.3 81.4 278.6
07/05 05:50 13.1 64 7.3 6.5 37 41 1027.4 2.2 16.8 24.5 35.6 93.0 83.4 285.6
07/05 05:40 13 63 7.15 6.1 39 44 1027.4 2.2 16.5 24.3 35.1 91.6 81.6 279.2
07/05 05:30 12.9 67 7.55 6.9 41 52 1027.3 2.2 17.4 25.0 36.7 95.9 86.8 297.6
07/05 05:20 13.3 68 7.86 7.5 39 46 1027.2 2.2 18.0 25.4 37.7 98.6 90.4 310.2
07/05 05:10 13.1 63 7.19 6.2 41 44 1027.1 2.2 16.6 24.4 35.2 91.9 81.9 280.6
07/05 05:00 13 69 7.83 7.5 37 46 1027.2 2.2 18.0 25.4 37.7 98.7 90.3 310.0
07/05 04:50 12.7 67 7.46 6.7 41 44 1027 2.2 17.2 24.9 36.4 95.1 85.8 294.2
07/05 04:40 12.4 69 7.54 6.9 35 39 1027.1 2.2 17.4 25.1 36.8 96.3 87.2 299.0
07/05 04:30 12 74 7.89 7.5 44 59 1026.9 2.2 18.1 25.8 38.4 100.6 92.3 316.7
07/05 04:20 13.1 70 7.99 7.8 48 54 1026.7 2.2 18.3 25.6 38.3 100.2 92.3 316.8
07/05 04:10 13.2 67 7.69 7.2 35 41 1026.8 2.2 17.7 25.1 37.1 96.9 88.3 302.7
07/05 04:00 13 65 7.37 6.6 39 46 1026.8 2.2 17.0 24.7 35.9 93.8 84.3 289.0
07/05 03:50 13 66 7.49 6.8 35 43 1026.7 2.2 17.2 24.8 36.4 95.1 85.9 294.4
07/05 03:40 12.9 66 7.44 6.7 37 41 1026.6 2.2 17.1 24.8 36.2 94.6 85.3 292.4
07/05 03:30 12.7 69 7.68 7.2 46 54 1026.6 2.2 17.7 25.2 37.2 97.4 88.7 304.1
07/05 03:20 12.6 73 8.08 7.9 46 50 1026.5 2.2 18.5 25.9 38.9 101.8 94.1 323.0
07/05 03:10 12.9 63 7.1 6 41 46 1026.6 2.2 16.4 24.3 34.9 91.1 81.0 277.1
07/05 03:00 12.9 65 7.33 6.5 43 52 1026.6 2.2 16.9 24.6 35.8 93.5 83.9 287.5
07/05 02:50 13.2 70 8.04 7.9 44 48 1026.5 2.2 18.4 25.7 38.4 100.6 92.8 318.7
07/05 02:40 13.4 64 7.44 6.7 41 50 1026.5 2.2 17.1 24.6 36.0 94.0 84.8 290.6
07/05 02:30 13.4 64 7.44 6.7 43 52 1026.6 2.2 17.1 24.7 36.0 94.1 84.8 290.6
07/05 02:20 13.2 61 7 5.9 44 50 1026.4 2.2 16.2 24.0 34.4 89.7 79.4 271.6
07/05 02:10 13.1 63 7.19 6.2 44 48 1026.4 2.2 16.6 24.3 35.1 91.8 81.9 280.4
07/05 02:00 13.1 65 7.42 6.7 46 57 1026.4 2.2 17.1 24.7 36.0 94.2 84.8 290.8
07/05 01:50 13.1 65 7.42 6.7 48 54 1026.4 2.2 17.1 24.7 36.0 94.2 84.8 290.8
07/05 01:40 13.1 71 8.1 8 46 50 1026.2 2.2 18.5 25.8 38.7 101.3 93.7 321.8
07/05 01:30 12.8 71 7.95 7.7 50 65 1026 2.2 18.2 25.6 38.2 100.1 92.1 316.0
07/05 01:20 13.5 65 7.6 7.1 48 54 1026.1 2.2 17.5 24.9 36.5 95.6 86.7 297.3
07/05 01:10 13.9 58 6.95 5.8 43 48 1026.2 2.2 16.1 23.7 33.9 88.4 78.0 267.0
07/05 01:00 13.7 56 6.63 5.1 41 50 1026.2 2.2 15.4 23.3 32.7 85.4 74.2 253.7
07/05 00:50 13.6 56 6.59 5 44 50 1026.2 2.2 15.3 23.3 32.6 85.1 73.8 252.3
07/05 00:40 13.4 54 6.28 4.3 48 52 1026.2 2.2 14.7 22.9 31.6 82.2 70.2 239.5
07/05 00:30 13.5 61 7.14 6.1 44 57 1026.3 2.2 16.5 24.1 34.8 90.8 80.8 276.8
07/05 00:20 13.5 56 6.55 4.9 43 50 1026.2 2.2 15.2 23.2 32.5 84.8 73.4 250.8
07/05 00:10 13.7 53 6.28 4.3 46 50 1026.1 2.2 14.7 22.8 31.4 81.9 69.9 238.6
07/05 00:00 13.7 52 6.16 4 46 57 1026.1 2.2 14.4 22.6 31.0 80.7 68.5 233.4
06/05 23:50 13.7 51 6.04 3.8 41 46 1026.2 2.2 14.1 22.4 30.6 79.6 67.0 228.3
06/05 23:40 13.7 54 6.39 4.6 46 50 1026.1 2.2 14.9 22.9 31.8 83.0 71.3 243.3
06/05 23:30 13.7 55 6.51 4.8 46 56 1026.1 2.2 15.1 23.1 32.3 84.2 72.8 248.5
06/05 23:20 13.7 55 6.51 4.8 44 50 1025.9 2.2 15.1 23.1 32.3 84.2 72.7 248.4
06/05 23:10 14 58 7 5.9 44 50 1026 2.2 16.2 23.8 34.0 88.8 78.6 268.8
06/05 23:00 13.9 55 6.59 5 43 50 1025.9 2.2 15.3 23.2 32.5 84.8 73.5 251.3
06/05 22:50 13.7 54 6.39 4.6 41 44 1026.1 2.2 14.9 22.9 31.8 83.0 71.3 243.3
06/05 22:40 13.7 51 6.04 3.8 39 43 1026 2.2 14.1 22.4 30.5 79.5 67.0 228.3
06/05 22:30 13.9 51 6.11 3.9 44 57 1025.8 2.2 14.3 22.5 30.7 80.0 67.7 230.7
06/05 22:20 13.8 57 6.79 5.4 44 48 1025.8 2.2 15.7 23.5 33.3 86.9 76.1 260.2
06/05 22:10 13.7 51 6.04 3.8 39 44 1025.9 2.2 14.1 22.4 30.5 79.5 67.0 228.3
06/05 22:00 13.7 55 6.51 4.8 46 59 1025.9 2.2 15.1 23.1 32.3 84.2 72.7 248.4
06/05 21:50 13.9 55 6.59 5 50 57 1025.6 2.2 15.3 23.2 32.5 84.7 73.5 251.2
06/05 21:40 14 60 7.24 6.4 48 50 1025.5 2.2 16.7 24.1 34.9 91.2 81.5 279.3
06/05 21:30 14.1 63 7.65 7.2 46 61 1025.4 2.2 17.5 24.7 36.4 95.3 86.6 297.2
06/05 21:20 14.3 51 6.27 4.3 41 46 1025.5 2.2 14.6 22.6 31.1 81.1 69.3 236.2
06/05 21:10 14.4 60 7.42 6.7 44 48 1025.4 2.2 17.0 24.3 35.4 92.6 83.4 285.8
06/05 21:00 14.4 63 7.79 7.5 41 50 1025.3 2.2 17.8 24.9 36.8 96.4 88.1 302.3
06/05 20:50 14.4 58 7.17 6.3 48 52 1024.9 2.2 16.5 23.9 34.4 90.0 80.2 274.7
06/05 20:40 14.5 61 7.59 7.1 41 44 1025.1 2.2 17.4 24.5 36.0 94.2 85.4 292.9
06/05 20:30 14.3 68 8.35 8.5 39 50 1025.1 2.2 19.0 25.8 39.1 102.4 95.4 328.1
06/05 20:20 14.3 67 8.23 8.3 41 48 1024.9 2.2 18.8 25.6 38.6 101.1 93.9 322.5
06/05 20:10 14.3 70 8.6 8.9 46 52 1024.6 2.2 19.6 26.2 40.1 105.0 98.7 339.5
06/05 20:00 14.7 67 8.44 8.6 43 56 1024.5 2.2 19.2 25.8 39.2 102.7 96.1 330.4
06/05 19:50 14.7 68 8.56 8.9 43 48 1024.5 2.2 19.4 26.0 39.7 104.0 97.7 335.9
06/05 19:40 14.7 63 7.93 7.7 46 54 1024.3 2.2 18.1 25.0 37.2 97.4 89.5 307.2
06/05 19:30 14.6 67 8.38 8.5 44 61 1024.2 2.2 19.1 25.7 39.0 102.2 95.4 328.0
06/05 19:20 14.7 68 8.56 8.9 54 59 1023.8 2.2 19.4 26.0 39.7 103.9 97.6 335.7
06/05 19:10 14.7 69 8.69 9.1 43 46 1024.1 2.2 19.7 26.2 40.2 105.4 99.3 341.8
06/05 19:00 14.6 71 8.88 9.4 43 50 1024 2.2 20.1 26.5 41.0 107.5 102.0 351.0
06/05 18:50 14.6 72 9.01 9.6 44 50 1023.9 2.2 20.4 26.7 41.5 108.9 103.7 357.0
06/05 18:40 14.4 73 9.02 9.6 52 57 1023.6 2.2 20.4 26.8 41.7 109.3 104.1 358.3
06/05 18:30 14.4 73 9.02 9.6 44 57 1023.5 2.2 20.4 26.8 41.7 109.3 104.1 358.3
06/05 18:20 14.5 74 9.2 9.9 50 54 1023.4 2.2 20.8 27.1 42.3 111.1 106.3 366.2
06/05 18:10 14.5 77 9.58 10.5 48 54 1023.2 2.2 21.6 27.7 43.9 115.2 111.5 384.2
06/05 18:00 14.4 79 9.77 10.8 44 54 1023 2.2 22.0 28.0 44.7 117.5 114.2 393.7
06/05 17:50 14.4 80 9.89 11 46 54 1022.8 2.2 22.3 28.2 45.2 118.8 115.8 399.4
06/05 17:40 14 85 10.25 11.5 46 54 1022.6 2.2 23.1 28.9 47.0 123.4 121.4 419.0
06/05 17:30 14.1 88 10.68 12.1 44 56 1022.5 2.2 24.0 29.7 48.8 128.2 127.4 439.7
06/05 17:20 14.1 90 10.92 12.5 44 50 1022.4 2.2 24.5 30.1 49.8 131.0 130.8 451.6
06/05 17:10 13.8 93 11.08 12.7 44 50 1022.3 2 24.9 30.5 50.7 133.4 133.6 461.4
06/05 17:00 14.3 93 11.43 13.2 37 54 1022.2 2 25.6 30.9 51.9 136.6 137.8 476.1
06/05 16:50 14.1 92 11.17 12.8 37 43 1022.4 2 25.1 30.5 50.9 133.9 134.4 464.2
06/05 16:40 14.5 92 11.44 13.2 28 32 1022.3 1.2 25.6 30.8 51.8 136.4 137.6 475.4

Last Refresh: 07-May-2026 09:15:18

Bureau of Meteorology